Arenas De San Pedro, Spain
Current Conditions -  °F | °C
As of 10:30 AM on Saturday 20 Dec 2014 (Local Time) from LESA Reporting Station
Moderate Fog Moderate Fog  
Wind Chill: 26°   Ceiling: 200
Heat Index: 32°   Visibility: 0.37mi
Dew Point: 32°   Wind: 6mph
Humidity: 100%   Direction: 110°ESE
Pressure: 30.59"   Gusts: NA
Location:  40.21°N, 5.09°W
Report Text: LESA 200930Z 11005KT 0600 R21/0900N FG VV002 00/00 Q1036
Loading
Personal Weather Stations






























Interactive Weather Map New forecast layout! Learn more

10-Day Weather Forecast

Advertisements
Track Severe Weather on mobile